Terminal Aerodrome Forecast
Issued by NWS

Home | Current Version | Previous Version | Text Only | Print | Product List | Glossary On
Versions: 1 2 3 4 5 6 7 8 9 10 11 12 13 14 15 16 17 18 19
000
FTUS41 KPBZ 062300
TAFBVI
TAF
KBVI 062338Z 0700/0724 21007KT P6SM BKN250
     FM070300 VRB03KT P6SM SCT100
     FM071300 24009KT P6SM BKN025
     FM071800 24010G20KT P6SM BKN015
      AMD NOT SKED 0702/0712=

USA.gov is the U.S. government's official web portal to all federal, state and local government web resources and services.